createdAt,value
2022-09-16T00:00:10.597Z,260.40
2022-09-16T00:01:10.700Z,259.80
2022-09-16T00:02:10.678Z,270.10
2022-09-16T00:03:10.583Z,271.20
2022-09-16T00:04:10.586Z,262.30
2022-09-16T00:05:10.561Z,269.60
2022-09-16T00:06:10.535Z,273.30
2022-09-16T00:07:10.569Z,260.50
2022-09-16T00:08:10.513Z,276.10
2022-09-16T00:09:10.504Z,281.20
2022-09-16T00:10:10.537Z,278.40
2022-09-16T00:11:10.536Z,269.60
2022-09-16T00:12:10.529Z,255.90
2022-09-16T00:13:10.483Z,254.50
2022-09-16T00:14:10.460Z,247.50
2022-09-16T00:15:10.440Z,238.30
2022-09-16T00:16:10.525Z,229.50
2022-09-16T00:17:10.472Z,230.00
2022-09-16T00:18:10.425Z,224.30
2022-09-16T00:19:10.410Z,219.20
2022-09-16T00:20:10.370Z,225.00
2022-09-16T00:21:10.370Z,215.80
2022-09-16T00:22:10.384Z,217.60
2022-09-16T00:23:10.349Z,216.20
2022-09-16T00:24:10.336Z,213.20
2022-09-16T00:25:10.339Z,213.20
2022-09-16T00:26:10.318Z,211.10
2022-09-16T00:27:10.351Z,212.80
2022-09-16T00:28:10.307Z,219.40
2022-09-16T00:29:10.288Z,229.40
2022-09-16T00:30:10.263Z,242.50
2022-09-16T00:31:10.331Z,224.60
2022-09-16T00:32:10.291Z,237.50
2022-09-16T00:33:10.249Z,240.10
2022-09-16T00:34:10.248Z,218.10
2022-09-16T00:35:10.228Z,237.90
2022-09-16T00:36:10.195Z,242.40
2022-09-16T00:37:10.226Z,239.40
2022-09-16T00:38:10.186Z,238.30
2022-09-16T00:39:10.183Z,227.10
2022-09-16T00:40:10.211Z,241.80
2022-09-16T00:41:10.170Z,225.80
2022-09-16T00:42:10.188Z,243.00
2022-09-16T00:43:10.126Z,245.70
2022-09-16T00:44:10.124Z,250.60
2022-09-16T00:45:10.099Z,234.90
2022-09-16T00:46:10.101Z,238.90
2022-09-16T00:47:10.202Z,245.80
2022-09-16T00:48:10.083Z,243.00
2022-09-16T00:49:10.074Z,237.60
2022-09-16T00:50:10.040Z,227.50
2022-09-16T00:51:10.048Z,227.10
2022-09-16T00:52:10.049Z,221.20
2022-09-16T00:53:10.006Z,220.70
2022-09-16T00:54:09.996Z,222.30
2022-09-16T00:55:10.001Z,224.20
2022-09-16T00:56:09.986Z,213.20
2022-09-16T00:57:10.040Z,215.70
2022-09-16T00:58:09.960Z,231.00
2022-09-16T00:59:09.945Z,214.30
2022-09-16T01:00:09.925Z,235.40
2022-09-16T01:01:09.985Z,246.60
2022-09-16T01:02:10.011Z,242.80
2022-09-16T01:03:09.912Z,228.70
2022-09-16T01:04:09.884Z,226.20
2022-09-16T01:05:09.885Z,228.80
2022-09-16T01:06:09.869Z,226.90
2022-09-16T01:07:09.889Z,221.00
2022-09-16T01:08:09.849Z,226.90
2022-09-16T01:09:09.857Z,237.80
2022-09-16T01:10:09.822Z,242.10
2022-09-16T01:11:09.824Z,257.20
2022-09-16T01:12:09.820Z,259.10
2022-09-16T01:13:09.787Z,282.20
2022-09-16T01:14:09.802Z,270.40
2022-09-16T01:15:09.764Z,287.40
2022-09-16T01:16:09.791Z,300.20
2022-09-16T01:17:09.787Z,302.90
2022-09-16T01:18:09.739Z,297.50
2022-09-16T01:19:09.733Z,302.80
2022-09-16T01:20:09.707Z,267.70
2022-09-16T01:21:09.710Z,256.80
2022-09-16T01:22:09.727Z,224.60
2022-09-16T01:23:09.685Z,217.00
2022-09-16T01:24:09.650Z,215.80
2022-09-16T01:25:09.646Z,211.20
2022-09-16T01:26:09.629Z,222.00
2022-09-16T01:27:09.670Z,226.30
2022-09-16T01:28:09.611Z,226.30
2022-09-16T01:29:09.612Z,221.00
2022-09-16T01:30:09.599Z,221.30
2022-09-16T01:31:09.615Z,207.30
2022-09-16T01:32:09.604Z,222.70
2022-09-16T01:33:09.582Z,230.60
2022-09-16T01:34:09.537Z,219.90
2022-09-16T01:35:09.540Z,225.70
2022-09-16T01:36:09.527Z,220.50
2022-09-16T01:37:09.541Z,220.50
2022-09-16T01:38:09.500Z,222.90
2022-09-16T01:39:09.483Z,221.90
2022-09-16T01:40:09.517Z,222.00
2022-09-16T01:41:09.474Z,215.20
2022-09-16T01:42:09.501Z,210.60
2022-09-16T01:43:09.482Z,216.90
2022-09-16T01:44:09.433Z,208.00
2022-09-16T01:45:09.423Z,223.10
2022-09-16T01:46:09.425Z,222.20
2022-09-16T01:47:09.434Z,217.60
2022-09-16T01:48:09.386Z,225.90
2022-09-16T01:49:09.373Z,216.90
2022-09-16T01:50:09.354Z,226.60
2022-09-16T01:51:09.354Z,208.80
2022-09-16T01:52:09.373Z,223.50
2022-09-16T01:53:09.323Z,236.10
2022-09-16T01:54:09.321Z,245.80
2022-09-16T01:55:09.302Z,241.80
2022-09-16T01:56:09.294Z,253.20
2022-09-16T01:57:09.314Z,253.30
2022-09-16T01:58:09.266Z,229.50
2022-09-16T01:59:09.257Z,258.30
2022-09-16T02:00:09.252Z,253.10
2022-09-16T02:01:09.233Z,257.80
2022-09-16T02:02:09.383Z,262.80
2022-09-16T02:03:09.224Z,267.00
2022-09-16T02:04:09.207Z,260.90
2022-09-16T02:05:09.196Z,258.80
2022-09-16T02:06:09.172Z,256.20
2022-09-16T02:07:09.208Z,252.40
2022-09-16T02:08:09.158Z,265.70
2022-09-16T02:09:09.148Z,261.80
2022-09-16T02:10:09.126Z,255.10
2022-09-16T02:11:09.118Z,253.40
2022-09-16T02:12:09.148Z,248.70
2022-09-16T02:13:09.107Z,257.30
2022-09-16T02:14:09.087Z,251.60
2022-09-16T02:15:09.083Z,258.10
2022-09-16T02:16:09.096Z,255.90
2022-09-16T02:17:09.090Z,248.50
2022-09-16T02:18:09.050Z,246.80
2022-09-16T02:19:09.038Z,239.00
2022-09-16T02:20:09.012Z,239.80
2022-09-16T02:21:09.008Z,232.70
2022-09-16T02:22:09.023Z,239.70
2022-09-16T02:23:08.986Z,234.40
2022-09-16T02:24:08.973Z,245.50
2022-09-16T02:25:08.966Z,246.60
2022-09-16T02:26:08.954Z,233.90
2022-09-16T02:27:08.981Z,232.80
2022-09-16T02:28:08.955Z,230.30
2022-09-16T02:29:08.924Z,247.80
2022-09-16T02:30:08.907Z,266.10
2022-09-16T02:31:08.902Z,258.40
2022-09-16T02:32:08.928Z,250.20
2022-09-16T02:33:08.861Z,240.40
2022-09-16T02:34:08.866Z,235.00
2022-09-16T02:35:08.845Z,228.90
2022-09-16T02:36:08.841Z,230.30
2022-09-16T02:37:08.875Z,230.70
2022-09-16T02:38:08.823Z,228.50
2022-09-16T02:39:08.810Z,228.10
2022-09-16T02:40:08.853Z,236.80
2022-09-16T02:41:08.785Z,250.90
2022-09-16T02:42:08.818Z,256.40
2022-09-16T02:43:08.771Z,265.10
2022-09-16T02:44:08.748Z,271.40
2022-09-16T02:45:08.746Z,274.80
2022-09-16T02:46:08.787Z,296.40
2022-09-16T02:47:08.759Z,331.90
2022-09-16T02:48:08.703Z,355.60
2022-09-16T02:49:08.689Z,349.60
2022-09-16T02:50:08.683Z,352.90
2022-09-16T02:51:08.679Z,369.00
2022-09-16T02:52:08.703Z,363.40
2022-09-16T02:53:08.663Z,369.10
2022-09-16T02:54:08.648Z,373.50
2022-09-16T02:55:08.624Z,389.10
2022-09-16T02:56:08.607Z,396.20
2022-09-16T02:57:08.651Z,385.20
2022-09-16T02:58:08.595Z,396.30
2022-09-16T02:59:08.589Z,388.10
2022-09-16T03:00:08.587Z,396.30
2022-09-16T03:01:08.573Z,378.70
2022-09-16T03:02:08.687Z,380.90
2022-09-16T03:03:08.650Z,381.30
2022-09-16T03:04:08.518Z,391.50
2022-09-16T03:05:08.513Z,397.00
2022-09-16T03:06:08.508Z,375.90
2022-09-16T03:07:08.528Z,375.50
2022-09-16T03:08:08.487Z,369.40
2022-09-16T03:09:08.465Z,338.60
2022-09-16T03:10:08.458Z,306.70
2022-09-16T03:11:08.449Z,291.90
2022-09-16T03:12:08.478Z,296.10
2022-09-16T03:13:08.416Z,300.20
2022-09-16T03:14:08.442Z,307.20
2022-09-16T03:15:08.411Z,310.10
2022-09-16T03:16:08.446Z,330.00
2022-09-16T03:17:08.406Z,326.60
2022-09-16T03:18:08.364Z,324.40
2022-09-16T03:19:08.365Z,315.50
2022-09-16T03:20:08.354Z,318.10
2022-09-16T03:21:08.327Z,322.60
2022-09-16T03:22:08.363Z,325.30
2022-09-16T03:23:08.305Z,323.70
2022-09-16T03:24:08.303Z,325.00
2022-09-16T03:25:08.283Z,329.00
2022-09-16T03:26:08.278Z,333.40
2022-09-16T03:27:08.310Z,335.00
2022-09-16T03:28:08.254Z,322.10
2022-09-16T03:29:08.251Z,305.90
2022-09-16T03:30:08.233Z,312.40
2022-09-16T03:31:08.281Z,312.00
2022-09-16T03:32:08.253Z,316.80
2022-09-16T03:33:08.191Z,327.50
2022-09-16T03:34:08.190Z,337.60
2022-09-16T03:35:08.178Z,341.80
2022-09-16T03:36:08.172Z,355.70
2022-09-16T03:37:08.221Z,369.60
2022-09-16T03:38:08.138Z,402.80
2022-09-16T03:39:08.123Z,406.20
2022-09-16T03:40:08.135Z,427.80
2022-09-16T03:41:08.111Z,438.80
2022-09-16T03:42:08.136Z,446.70
2022-09-16T03:43:08.080Z,451.90
2022-09-16T03:44:08.073Z,451.00
2022-09-16T03:45:08.065Z,457.60
2022-09-16T03:46:08.081Z,458.00
2022-09-16T03:47:08.066Z,448.80
2022-09-16T03:48:08.031Z,438.80
2022-09-16T03:49:08.014Z,432.60
2022-09-16T03:50:08.001Z,429.00
2022-09-16T03:51:07.988Z,423.90
2022-09-16T03:52:08.029Z,412.70
2022-09-16T03:53:07.994Z,410.30
2022-09-16T03:54:07.963Z,397.40
2022-09-16T03:55:07.948Z,377.70
2022-09-16T03:56:07.935Z,360.20
2022-09-16T03:57:07.957Z,350.70
2022-09-16T03:58:07.920Z,330.20
2022-09-16T03:59:07.899Z,298.10
2022-09-16T04:00:07.898Z,288.80
2022-09-16T04:01:07.942Z,277.80
2022-09-16T04:02:07.901Z,274.20
2022-09-16T04:03:07.893Z,255.90
2022-09-16T04:04:07.852Z,257.70
2022-09-16T04:05:07.833Z,252.50
2022-09-16T04:06:07.828Z,252.60
2022-09-16T04:07:07.845Z,244.70
2022-09-16T04:08:07.805Z,242.30
2022-09-16T04:09:07.797Z,241.90
2022-09-16T04:10:07.783Z,235.10
2022-09-16T04:11:07.758Z,239.00
2022-09-16T04:12:07.801Z,233.50
2022-09-16T04:13:07.738Z,235.70
2022-09-16T04:14:07.738Z,229.40
2022-09-16T04:15:07.723Z,238.20
2022-09-16T04:16:07.779Z,227.70
2022-09-16T04:17:07.702Z,236.90
2022-09-16T04:18:07.727Z,233.20
2022-09-16T04:19:07.676Z,229.40
2022-09-16T04:20:07.666Z,250.50
2022-09-16T04:21:07.655Z,249.90
2022-09-16T04:22:07.649Z,241.80
2022-09-16T04:23:07.669Z,221.70
2022-09-16T04:24:12.689Z,215.80
2022-09-16T04:25:08.608Z,218.50
2022-09-16T04:26:07.607Z,211.70
2022-09-16T04:27:07.582Z,220.30
2022-09-16T04:28:07.616Z,216.60
2022-09-16T04:29:07.557Z,212.30
2022-09-16T04:30:07.581Z,222.70
2022-09-16T04:31:07.606Z,216.40
2022-09-16T04:32:07.568Z,218.60
2022-09-16T04:33:07.519Z,216.80
2022-09-16T04:34:07.516Z,221.40
2022-09-16T04:35:07.488Z,222.40
2022-09-16T04:36:07.488Z,216.00
2022-09-16T04:37:07.509Z,221.10
2022-09-16T04:38:07.460Z,226.40
2022-09-16T04:39:07.478Z,222.40
2022-09-16T04:40:07.502Z,219.20
2022-09-16T04:41:07.418Z,225.20
2022-09-16T04:42:07.419Z,221.30
2022-09-16T04:43:07.429Z,230.70
2022-09-16T04:44:07.393Z,228.90
2022-09-16T04:45:07.374Z,232.70
2022-09-16T04:46:07.412Z,225.40
2022-09-16T04:47:07.348Z,232.70
2022-09-16T04:48:07.389Z,226.40
2022-09-16T04:49:07.338Z,232.50
2022-09-16T04:50:07.319Z,239.20
2022-09-16T04:51:07.306Z,268.60
2022-09-16T04:52:07.305Z,257.40
2022-09-16T04:53:07.339Z,280.90
2022-09-16T04:54:07.284Z,284.30
2022-09-16T04:55:07.264Z,325.30
2022-09-16T04:56:07.288Z,338.30
2022-09-16T04:57:07.256Z,327.80
2022-09-16T04:58:07.263Z,327.00
2022-09-16T04:59:07.225Z,343.10
2022-09-16T05:00:07.218Z,348.50
2022-09-16T05:01:07.276Z,355.80
2022-09-16T05:02:07.203Z,367.90
2022-09-16T05:03:07.231Z,384.10
2022-09-16T05:04:07.173Z,382.70
2022-09-16T05:05:07.158Z,390.00
2022-09-16T05:06:07.155Z,395.00
2022-09-16T05:07:07.132Z,399.10
2022-09-16T05:08:07.180Z,407.90
2022-09-16T05:09:07.114Z,411.40
2022-09-16T05:10:07.101Z,399.20
2022-09-16T05:11:07.073Z,426.10
2022-09-16T05:12:07.083Z,406.20
2022-09-16T05:13:07.071Z,408.50
2022-09-16T05:14:07.091Z,414.00
2022-09-16T05:15:07.051Z,419.60
2022-09-16T05:16:07.072Z,411.50
2022-09-16T05:17:07.100Z,395.90
2022-09-16T05:18:07.022Z,393.10
2022-09-16T05:19:07.029Z,378.90
2022-09-16T05:20:06.993Z,378.60
2022-09-16T05:21:06.976Z,370.60
2022-09-16T05:22:06.986Z,389.30
2022-09-16T05:23:06.954Z,372.40
2022-09-16T05:24:06.993Z,378.30
2022-09-16T05:25:06.966Z,368.10
2022-09-16T05:26:06.933Z,336.50
2022-09-16T05:27:06.923Z,320.80
2022-09-16T05:28:06.917Z,301.80
2022-09-16T05:29:06.916Z,283.00
2022-09-16T05:30:06.883Z,272.90
2022-09-16T05:31:06.902Z,254.10
2022-09-16T05:32:06.859Z,240.10
2022-09-16T05:33:06.846Z,235.60
2022-09-16T05:34:06.877Z,231.30
2022-09-16T05:35:06.822Z,237.50
2022-09-16T05:36:06.818Z,240.30
2022-09-16T05:37:06.793Z,230.90
2022-09-16T05:38:06.784Z,232.10
2022-09-16T05:39:24.151Z,244.30
2022-09-16T05:40:07.821Z,248.50
2022-09-16T05:41:06.748Z,241.10
2022-09-16T05:42:06.746Z,240.70
2022-09-16T05:43:06.726Z,248.10
2022-09-16T05:44:06.760Z,248.30
2022-09-16T05:45:06.703Z,233.80
2022-09-16T05:46:06.727Z,230.60
2022-09-16T05:47:06.690Z,222.30
2022-09-16T05:48:06.701Z,207.90
2022-09-16T05:49:06.703Z,202.10
2022-09-16T05:50:06.648Z,202.60
2022-09-16T05:51:06.636Z,210.00
2022-09-16T05:52:06.617Z,199.10
2022-09-16T05:53:06.623Z,189.70
2022-09-16T05:54:06.608Z,188.10
2022-09-16T05:55:06.630Z,196.30
2022-09-16T05:56:06.587Z,205.00
2022-09-16T05:57:07.343Z,192.70
2022-09-16T05:58:06.568Z,219.00
2022-09-16T05:59:06.536Z,211.80
2022-09-16T06:00:06.583Z,205.90
2022-09-16T06:01:06.584Z,207.70
2022-09-16T06:02:06.616Z,217.10
2022-09-16T06:03:06.496Z,192.20
2022-09-16T06:04:06.498Z,186.60
2022-09-16T06:05:06.510Z,189.60
2022-09-16T06:06:06.478Z,189.50
2022-09-16T06:07:06.466Z,177.90
2022-09-16T06:08:06.461Z,185.10
2022-09-16T06:09:06.436Z,213.30
2022-09-16T06:10:06.462Z,184.50
2022-09-16T06:11:06.412Z,200.40
2022-09-16T06:12:06.403Z,181.70
2022-09-16T06:13:06.383Z,184.80
2022-09-16T06:14:06.378Z,178.60
2022-09-16T06:15:06.398Z,184.00
2022-09-16T06:16:06.388Z,183.70
2022-09-16T06:17:06.348Z,177.40
2022-09-16T06:18:06.705Z,187.10
2022-09-16T06:19:06.315Z,181.10
2022-09-16T06:20:06.346Z,184.00
2022-09-16T06:21:06.320Z,227.60
2022-09-16T06:22:06.278Z,279.30
2022-09-16T06:23:06.263Z,319.80
2022-09-16T06:24:06.249Z,342.30
2022-09-16T06:25:06.282Z,333.90
2022-09-16T06:26:06.245Z,294.20
2022-09-16T06:27:06.226Z,212.70
2022-09-16T06:28:06.220Z,144.00
2022-09-16T06:29:06.202Z,91.80
2022-09-16T06:30:06.230Z,76.00
2022-09-16T06:31:06.415Z,113.30
2022-09-16T06:32:06.172Z,136.70
2022-09-16T06:33:06.173Z,138.10
2022-09-16T06:34:06.154Z,124.20
2022-09-16T06:35:06.170Z,113.60
2022-09-16T06:36:06.128Z,100.00
2022-09-16T06:37:06.102Z,136.20
2022-09-16T06:38:06.105Z,22.80
2022-09-16T06:39:06.088Z,235.50
2022-09-16T06:40:06.176Z,112.60
2022-09-16T06:41:06.065Z,15.70
2022-09-16T06:42:06.063Z,62.80
2022-09-16T06:43:06.043Z,42.30
2022-09-16T06:44:06.030Z,26.70
2022-09-16T06:45:06.068Z,25.90
2022-09-16T06:46:06.048Z,57.50
2022-09-16T06:47:06.021Z,69.40
2022-09-16T06:48:06.010Z,67.60
2022-09-16T06:49:06.737Z,68.90
2022-09-16T06:50:05.995Z,74.70
2022-09-16T06:51:05.961Z,77.90
2022-09-16T06:52:05.953Z,56.50
2022-09-16T06:53:05.934Z,79.60
2022-09-16T06:54:05.911Z,112.10
2022-09-16T06:55:05.958Z,51.10
2022-09-16T06:56:05.890Z,67.40
2022-09-16T06:57:11.390Z,106.80
2022-09-16T06:58:06.887Z,97.80
2022-09-16T06:59:05.865Z,75.90
2022-09-16T07:00:05.899Z,114.10
2022-09-16T07:01:05.893Z,82.60
2022-09-16T07:02:05.873Z,91.60
2022-09-16T07:03:05.823Z,33.50
2022-09-16T07:04:05.809Z,61.40
2022-09-16T07:05:05.846Z,42.20
2022-09-16T07:06:05.784Z,109.00
2022-09-16T07:07:09.783Z,48.10
2022-09-16T07:08:05.774Z,51.10
2022-09-16T07:09:05.767Z,13.80
2022-09-16T07:10:05.728Z,13.30
2022-09-16T07:11:05.774Z,104.80
2022-09-16T07:12:05.721Z,62.60
2022-09-16T07:13:05.701Z,111.10
2022-09-16T07:14:05.699Z,99.70
2022-09-16T07:15:05.726Z,113.90
2022-09-16T07:16:14.131Z,75.20
2022-09-16T07:17:06.689Z,74.20
2022-09-16T07:18:05.639Z,123.50
2022-09-16T07:19:05.654Z,84.30
2022-09-16T07:20:05.662Z,89.90
2022-09-16T07:21:05.631Z,97.90
2022-09-16T07:22:05.596Z,203.80
2022-09-16T07:23:05.602Z,150.50
2022-09-16T07:24:05.577Z,177.90
2022-09-16T07:25:05.611Z,966.00
2022-09-16T07:26:05.574Z,1199.50
2022-09-16T07:27:05.547Z,1332.80
2022-09-16T07:28:05.548Z,1589.50
2022-09-16T07:29:05.523Z,743.50
2022-09-16T07:30:08.934Z,1025.50
2022-09-16T07:31:05.622Z,620.30
2022-09-16T07:32:05.484Z,781.70
2022-09-16T07:33:05.512Z,730.40
2022-09-16T07:34:05.488Z,538.90
2022-09-16T07:35:05.459Z,67.00
2022-09-16T07:36:05.465Z,663.20
2022-09-16T07:37:05.452Z,967.20
2022-09-16T07:38:05.416Z,1609.70
2022-09-16T07:39:05.412Z,1234.10
2022-09-16T07:40:05.457Z,816.60
2022-09-16T07:41:05.423Z,627.10
2022-09-16T07:42:06.353Z,1999.90
2022-09-16T07:43:05.370Z,1999.90
2022-09-16T07:44:05.344Z,1999.90
2022-09-16T07:45:05.383Z,1999.90
2022-09-16T07:46:05.400Z,1999.90
2022-09-16T07:47:05.326Z,1999.90
2022-09-16T07:48:05.298Z,1999.90
2022-09-16T07:49:05.303Z,1999.90
2022-09-16T07:50:05.323Z,1999.90
2022-09-16T07:51:05.280Z,1999.90
2022-09-16T07:52:05.263Z,1999.90
2022-09-16T07:53:05.248Z,1999.90
2022-09-16T07:54:05.242Z,1999.90
2022-09-16T07:55:05.276Z,1999.90
2022-09-16T07:56:05.233Z,1999.90
2022-09-16T07:57:05.208Z,1999.90
2022-09-16T07:58:05.188Z,1999.90
2022-09-16T07:59:05.186Z,1999.90
2022-09-16T08:00:05.164Z,1999.90
2022-09-16T08:01:05.293Z,1999.90
2022-09-16T08:02:05.328Z,1999.90
2022-09-16T08:03:05.228Z,1999.90
2022-09-16T08:04:05.118Z,1999.90
2022-09-16T08:05:05.108Z,1999.90
2022-09-16T08:06:05.138Z,1999.90
2022-09-16T08:07:05.102Z,1999.90
2022-09-16T08:08:05.095Z,1510.10
2022-09-16T08:09:15.621Z,1999.90
2022-09-16T08:10:06.171Z,1999.90
2022-09-16T08:11:05.058Z,1999.90
2022-09-16T08:12:05.034Z,1999.90
2022-09-16T08:13:05.030Z,1999.90
2022-09-16T08:14:05.018Z,1999.90
2022-09-16T08:15:05.038Z,1999.90
2022-09-16T08:16:04.996Z,1999.90
2022-09-16T08:17:04.992Z,1999.90
2022-09-16T08:18:04.969Z,1999.90
2022-09-16T08:19:04.964Z,1999.90
2022-09-16T08:20:05.007Z,1999.90
2022-09-16T08:21:04.924Z,1999.90
2022-09-16T08:22:04.949Z,1999.90
2022-09-16T08:23:04.914Z,1999.90
2022-09-16T08:24:04.918Z,1999.90
2022-09-16T08:25:04.940Z,1999.90
2022-09-16T08:26:04.881Z,1999.90
2022-09-16T08:27:04.896Z,1999.90
2022-09-16T08:28:04.856Z,1999.90
2022-09-16T08:29:08.965Z,1999.90
2022-09-16T08:30:05.893Z,1999.90
2022-09-16T08:31:04.834Z,1999.90
2022-09-16T08:32:04.873Z,1999.90
2022-09-16T08:33:04.818Z,1999.90
2022-09-16T08:34:04.808Z,1999.90
2022-09-16T08:35:04.777Z,1999.90
2022-09-16T08:36:04.797Z,1999.90
2022-09-16T08:37:04.758Z,1999.90
2022-09-16T08:38:04.743Z,1999.90
2022-09-16T08:39:04.748Z,1999.90
2022-09-16T08:40:04.827Z,1999.90
2022-09-16T08:41:04.763Z,1999.90
2022-09-16T08:42:04.696Z,1999.90
2022-09-16T08:43:04.693Z,1999.90
2022-09-16T08:44:04.695Z,1999.90
2022-09-16T08:45:04.671Z,1999.90
2022-09-16T08:46:04.747Z,1999.90
2022-09-16T08:47:04.653Z,1999.90
2022-09-16T08:48:04.622Z,1999.90
2022-09-16T08:49:04.679Z,1999.90
2022-09-16T08:50:04.608Z,1999.90
2022-09-16T08:51:04.644Z,1999.90
2022-09-16T08:52:04.588Z,1999.90
2022-09-16T08:53:04.594Z,1999.90
2022-09-16T08:54:04.563Z,1999.90
2022-09-16T08:55:04.558Z,1999.90
2022-09-16T08:56:04.579Z,1999.90
2022-09-16T08:57:04.552Z,1999.90
2022-09-16T08:58:04.523Z,1999.90
2022-09-16T08:59:04.513Z,1999.90
2022-09-16T09:00:04.494Z,1999.90
2022-09-16T09:01:04.617Z,1999.90
2022-09-16T09:02:09.064Z,1999.90
2022-09-16T09:03:05.482Z,1999.90
2022-09-16T09:04:04.458Z,1999.90
2022-09-16T09:05:04.483Z,1999.90
2022-09-16T09:06:04.467Z,1862.50
2022-09-16T09:07:04.434Z,760.10
2022-09-16T09:08:04.422Z,1999.90
2022-09-16T09:09:04.394Z,1876.20
2022-09-16T09:10:07.148Z,1366.90
2022-09-16T09:11:05.424Z,1999.90
2022-09-16T09:12:04.364Z,1636.50
2022-09-16T09:13:04.484Z,339.00
2022-09-16T09:14:04.344Z,130.50
2022-09-16T09:15:04.353Z,50.10
2022-09-16T09:16:04.422Z,421.60
2022-09-16T09:17:04.316Z,113.40
2022-09-16T09:18:04.298Z,12.20
2022-09-16T09:19:04.291Z,12.90
2022-09-16T09:20:04.269Z,16.90
2022-09-16T09:21:04.315Z,15.60
2022-09-16T09:22:04.259Z,14.50
2022-09-16T09:23:04.245Z,20.90
2022-09-16T09:24:04.233Z,11.10
2022-09-16T09:25:04.215Z,11.80
2022-09-16T09:26:04.242Z,315.30
2022-09-16T09:27:04.200Z,207.20
2022-09-16T09:28:04.189Z,19.00
2022-09-16T09:29:04.182Z,12.30
2022-09-16T09:30:04.175Z,13.30
2022-09-16T09:31:08.659Z,13.60
2022-09-16T09:32:05.219Z,14.80
2022-09-16T09:33:04.161Z,14.60
2022-09-16T09:34:04.146Z,14.90
2022-09-16T09:35:04.112Z,24.40
2022-09-16T09:36:04.137Z,17.70
2022-09-16T09:37:04.090Z,173.50
2022-09-16T09:38:04.073Z,528.40
2022-09-16T09:39:04.078Z,1818.40
2022-09-16T09:40:04.083Z,1251.50
2022-09-16T09:41:04.084Z,1999.90
2022-09-16T09:42:04.030Z,1999.90
2022-09-16T09:43:04.013Z,1999.90
2022-09-16T09:44:04.005Z,1999.90
2022-09-16T09:45:04.086Z,1999.90
2022-09-16T09:46:04.123Z,1999.90
2022-09-16T09:47:03.992Z,1999.90
2022-09-16T09:48:03.965Z,1999.90
2022-09-16T09:49:03.993Z,1999.90
2022-09-16T09:50:03.946Z,1999.90
2022-09-16T09:51:03.959Z,1999.90
2022-09-16T09:52:03.915Z,1999.90
2022-09-16T09:53:03.925Z,1999.90
2022-09-16T09:54:03.895Z,1999.90
2022-09-16T09:55:03.882Z,1999.90
2022-09-16T09:56:03.907Z,1999.90
2022-09-16T09:57:03.870Z,1999.90
2022-09-16T09:58:03.850Z,1999.90
2022-09-16T09:59:03.848Z,1999.90
2022-09-16T10:00:03.832Z,1999.90
2022-09-16T10:01:03.917Z,1999.90
2022-09-16T10:02:03.893Z,1999.90
2022-09-16T10:03:03.800Z,1999.90
2022-09-16T10:04:03.784Z,1999.90
2022-09-16T10:05:03.772Z,1999.90
2022-09-16T10:06:03.799Z,1999.90
2022-09-16T10:08:03.743Z,1999.90
2022-09-16T10:09:03.727Z,1999.90
2022-09-16T10:10:03.711Z,1999.90
2022-09-16T10:11:03.749Z,1999.90
2022-09-16T10:12:03.691Z,1999.90
2022-09-16T10:13:03.682Z,1999.90
2022-09-16T10:14:03.679Z,1999.90
2022-09-16T10:15:03.669Z,1999.90
2022-09-16T10:16:03.716Z,1999.90
2022-09-16T10:17:03.642Z,1999.90
2022-09-16T10:18:03.614Z,1999.90
2022-09-16T10:19:03.609Z,1999.90
2022-09-16T10:20:03.592Z,1999.90
2022-09-16T10:21:03.635Z,1999.90
2022-09-16T10:22:03.586Z,1999.90
2022-09-16T10:23:03.581Z,1999.90
2022-09-16T10:24:03.552Z,1999.90
2022-09-16T10:25:03.552Z,1999.90
2022-09-16T10:26:03.570Z,1999.90
2022-09-16T10:27:03.520Z,1999.90
2022-09-16T10:28:03.508Z,1999.90
2022-09-16T10:29:03.503Z,1999.90
2022-09-16T10:30:03.486Z,1999.90
2022-09-16T10:31:03.560Z,281.00
2022-09-16T10:32:03.581Z,1286.00
2022-09-16T10:33:03.465Z,1943.00
2022-09-16T10:34:03.434Z,1453.30
2022-09-16T10:35:03.461Z,1999.90
2022-09-16T10:36:03.457Z,1446.60
2022-09-16T10:37:03.410Z,1229.60
2022-09-16T10:38:03.404Z,1999.90
2022-09-16T10:39:04.764Z,1999.90
2022-09-16T10:40:03.464Z,1999.90
2022-09-16T10:41:03.408Z,1263.30
2022-09-16T10:42:03.359Z,1963.30
2022-09-16T10:43:03.358Z,628.40
2022-09-16T10:44:03.339Z,1999.90
2022-09-16T10:45:03.320Z,1999.90
2022-09-16T10:46:03.385Z,1999.90
2022-09-16T10:47:03.318Z,1999.90
2022-09-16T10:48:06.453Z,1999.90
2022-09-16T10:49:03.281Z,1999.90
2022-09-16T10:50:03.250Z,1999.90
2022-09-16T10:51:03.279Z,1999.90
2022-09-16T10:52:03.227Z,1999.90
2022-09-16T10:53:03.222Z,1999.90
2022-09-16T10:54:03.219Z,1999.90
2022-09-16T10:55:03.218Z,1999.90
2022-09-16T10:56:03.235Z,1999.90
2022-09-16T10:57:03.190Z,1999.90
2022-09-16T10:58:03.182Z,1999.90
2022-09-16T10:59:03.175Z,1999.90
2022-09-16T11:00:03.144Z,1999.90
2022-09-16T11:01:03.261Z,1999.90
2022-09-16T11:02:03.400Z,1999.90
2022-09-16T11:03:03.119Z,1999.90
2022-09-16T11:04:04.415Z,1999.90
2022-09-16T11:05:03.077Z,1999.90
2022-09-16T11:06:03.130Z,1999.90
2022-09-16T11:07:03.075Z,1999.90
2022-09-16T11:08:03.075Z,1999.90
2022-09-16T11:09:03.046Z,1999.90
2022-09-16T11:10:03.093Z,1999.90
2022-09-16T11:11:03.061Z,1999.90
2022-09-16T11:12:04.504Z,1999.90
2022-09-16T11:13:02.999Z,1999.90
2022-09-16T11:14:03.002Z,1498.70
2022-09-16T11:15:02.976Z,1999.90
2022-09-16T11:16:03.060Z,1999.90
2022-09-16T11:17:02.951Z,1862.10
2022-09-16T11:18:02.959Z,1565.80
2022-09-16T11:19:02.928Z,1218.10
2022-09-16T11:20:02.936Z,1114.60
2022-09-16T11:21:02.956Z,1032.00
2022-09-16T11:22:02.943Z,1658.00
2022-09-16T11:23:02.913Z,1785.80
2022-09-16T11:24:02.885Z,1999.90
2022-09-16T11:25:02.861Z,1544.90
2022-09-16T11:26:02.893Z,1293.70
2022-09-16T11:27:02.850Z,1271.60
2022-09-16T11:28:02.843Z,953.70
2022-09-16T11:29:02.829Z,1999.90
2022-09-16T11:30:02.818Z,1918.90
2022-09-16T11:31:02.897Z,1283.70
2022-09-16T11:32:02.805Z,1999.90
2022-09-16T11:33:03.563Z,1999.90
2022-09-16T11:34:02.984Z,1576.70
2022-09-16T11:35:02.844Z,858.20
2022-09-16T11:36:02.796Z,735.50
2022-09-16T11:37:02.737Z,1500.40
2022-09-16T11:38:02.731Z,1146.40
2022-09-16T11:39:02.723Z,298.10
2022-09-16T11:40:02.820Z,596.80
2022-09-16T11:41:02.740Z,1062.60
2022-09-16T11:42:02.681Z,1134.90
2022-09-16T11:43:02.678Z,889.10
2022-09-16T11:44:02.668Z,859.40
2022-09-16T11:45:02.659Z,937.00
2022-09-16T11:46:02.670Z,887.00
2022-09-16T11:47:02.630Z,849.70
2022-09-16T11:48:02.632Z,427.90
2022-09-16T11:49:02.604Z,30.40
2022-09-16T11:50:02.613Z,14.60
2022-09-16T11:51:02.622Z,10.90
2022-09-16T11:52:02.589Z,81.70
2022-09-16T11:53:05.128Z,433.80
2022-09-16T11:54:02.729Z,14.40
2022-09-16T11:55:02.536Z,10.60
2022-09-16T11:56:02.576Z,10.30
2022-09-16T11:57:02.501Z,11.60
2022-09-16T11:58:02.496Z,12.90
2022-09-16T11:59:02.476Z,11.90
2022-09-16T12:00:02.481Z,12.20
2022-09-16T12:01:02.506Z,13.40
2022-09-16T12:02:02.541Z,18.40
2022-09-16T12:03:02.478Z,38.50
2022-09-16T12:04:02.436Z,63.90
2022-09-16T12:05:02.433Z,26.20
2022-09-16T12:06:02.468Z,39.10
2022-09-16T12:07:02.407Z,256.60
2022-09-16T12:08:02.424Z,1121.00
2022-09-16T12:09:03.728Z,1061.10
2022-09-16T12:10:02.379Z,808.20
2022-09-16T12:11:02.381Z,286.50
2022-09-16T12:12:02.356Z,749.30
2022-09-16T12:13:02.330Z,397.10
2022-09-16T12:14:05.355Z,375.10
2022-09-16T12:15:05.698Z,1066.50
2022-09-16T12:16:02.343Z,1447.70
2022-09-16T12:17:02.291Z,1555.90
2022-09-16T12:18:02.282Z,1759.00
2022-09-16T12:19:02.274Z,1999.90
2022-09-16T12:20:02.268Z,1999.90
2022-09-16T12:21:02.286Z,1999.90
2022-09-16T12:22:02.246Z,1999.90
2022-09-16T12:23:02.220Z,1999.90
2022-09-16T12:24:02.209Z,1999.90